createdAt,value
2017-05-13T00:00:07.946Z,17.90
2017-05-13T00:02:35.282Z,17.90
2017-05-13T00:05:02.695Z,17.90
2017-05-13T00:07:30.044Z,17.90
2017-05-13T00:09:57.397Z,17.70
2017-05-13T00:12:24.869Z,17.80
2017-05-13T00:14:52.971Z,17.90
2017-05-13T00:17:20.331Z,18.00
2017-05-13T00:19:47.728Z,17.90
2017-05-13T00:22:15.114Z,18.00
2017-05-13T00:24:43.184Z,18.00
2017-05-13T00:27:11.269Z,17.90
2017-05-13T00:29:38.612Z,17.90
2017-05-13T00:32:06.685Z,18.00
2017-05-13T00:34:34.046Z,18.00
2017-05-13T00:37:02.114Z,18.00
2017-05-13T00:39:29.540Z,18.00
2017-05-13T00:41:56.881Z,17.90
2017-05-13T00:44:24.225Z,17.80
2017-05-13T00:46:51.566Z,17.80
2017-05-13T00:49:18.926Z,17.70
2017-05-13T00:51:46.251Z,17.50
2017-05-13T00:54:13.659Z,17.50
2017-05-13T00:56:41.759Z,17.40
2017-05-13T00:59:09.107Z,17.40
2017-05-13T01:01:37.190Z,17.40
2017-05-13T01:04:04.585Z,17.40
2017-05-13T01:06:31.953Z,17.30
2017-05-13T01:08:59.334Z,17.20
2017-05-13T01:11:27.494Z,17.20
2017-05-13T01:13:54.920Z,17.20
2017-05-13T01:16:22.286Z,17.10
2017-05-13T01:18:49.654Z,17.20
2017-05-13T01:21:19.753Z,17.10
2017-05-13T01:23:47.856Z,17.10
2017-05-13T01:26:15.974Z,17.10
2017-05-13T01:28:43.365Z,17.00
2017-05-13T01:31:10.771Z,17.00
2017-05-13T01:33:38.094Z,16.90
2017-05-13T01:36:06.185Z,16.80
2017-05-13T01:38:33.557Z,16.70
2017-05-13T01:41:00.916Z,16.70
2017-05-13T01:43:28.351Z,16.80
2017-05-13T01:45:55.830Z,16.70
2017-05-13T01:48:23.221Z,16.70
2017-05-13T01:50:50.626Z,16.60
2017-05-13T01:53:18.023Z,16.50
2017-05-13T01:55:46.118Z,16.50
2017-05-13T01:58:13.513Z,16.50
2017-05-13T02:00:40.902Z,16.50
2017-05-13T02:03:08.256Z,16.50
2017-05-13T02:05:35.634Z,16.50
2017-05-13T02:08:03.694Z,16.50
2017-05-13T02:10:31.767Z,16.50
2017-05-13T02:12:59.841Z,16.50
2017-05-13T02:15:27.294Z,16.40
2017-05-13T02:17:54.646Z,16.40
2017-05-13T02:20:22.743Z,16.40
2017-05-13T02:22:50.066Z,16.30
2017-05-13T02:25:17.429Z,16.20
2017-05-13T02:27:44.821Z,16.20
2017-05-13T02:30:12.197Z,16.20
2017-05-13T02:32:39.559Z,16.20
2017-05-13T02:35:07.691Z,16.10
2017-05-13T02:37:35.057Z,16.10
2017-05-13T02:40:02.449Z,16.00
2017-05-13T02:42:30.534Z,16.00
2017-05-13T02:44:58.625Z,16.00
2017-05-13T02:47:25.802Z,15.90
2017-05-13T02:49:53.177Z,15.90
2017-05-13T02:52:20.515Z,15.90
2017-05-13T02:54:47.947Z,16.00
2017-05-13T02:57:15.270Z,16.00
2017-05-13T02:59:42.714Z,16.00
2017-05-13T03:02:10.088Z,16.10
2017-05-13T03:04:37.456Z,16.10
2017-05-13T03:07:04.809Z,16.10
2017-05-13T03:09:32.186Z,16.10
2017-05-13T03:11:59.581Z,16.20
2017-05-13T03:14:27.749Z,16.10
2017-05-13T03:16:55.109Z,16.20
2017-05-13T03:19:22.502Z,16.20
2017-05-13T03:21:49.865Z,16.20
2017-05-13T03:24:17.235Z,16.20
2017-05-13T03:26:44.608Z,16.20
2017-05-13T03:29:11.958Z,16.20
2017-05-13T03:31:39.310Z,16.10
2017-05-13T03:34:06.662Z,16.10
2017-05-13T03:36:34.037Z,16.10
2017-05-13T03:39:02.177Z,16.00
2017-05-13T03:41:29.558Z,16.10
2017-05-13T03:43:57.642Z,16.00
2017-05-13T03:46:25.729Z,16.00
2017-05-13T03:48:53.790Z,16.00
2017-05-13T03:51:21.159Z,16.10
2017-05-13T03:53:48.602Z,16.10
2017-05-13T03:56:16.008Z,15.90
2017-05-13T03:58:43.346Z,16.00
2017-05-13T04:01:10.849Z,16.00
2017-05-13T04:03:38.190Z,16.10
2017-05-13T04:06:06.279Z,16.10
2017-05-13T04:08:34.397Z,16.20
2017-05-13T04:11:01.769Z,16.20
2017-05-13T04:13:29.138Z,16.30
2017-05-13T04:15:56.493Z,16.40
2017-05-13T04:18:23.845Z,16.30
2017-05-13T04:20:51.297Z,16.30
2017-05-13T04:23:18.654Z,16.30
2017-05-13T04:25:46.038Z,16.30
2017-05-13T04:28:13.420Z,16.30
2017-05-13T04:30:40.811Z,16.30
2017-05-13T04:33:08.171Z,16.30
2017-05-13T04:35:35.489Z,16.30
2017-05-13T04:38:02.842Z,16.30
2017-05-13T04:40:30.181Z,16.30
2017-05-13T04:42:57.517Z,16.40
2017-05-13T04:45:24.866Z,16.40
2017-05-13T04:47:59.228Z,16.50
2017-05-13T04:50:26.363Z,16.40
2017-05-13T04:52:53.551Z,16.50
2017-05-13T04:55:20.696Z,16.70
2017-05-13T04:57:47.805Z,16.70
2017-05-13T05:00:14.943Z,16.80
2017-05-13T05:02:42.209Z,16.90
2017-05-13T05:05:09.371Z,17.00
2017-05-13T05:07:36.486Z,17.20
2017-05-13T05:10:04.342Z,17.30
2017-05-13T05:12:32.277Z,17.40
2017-05-13T05:14:59.398Z,17.60
2017-05-13T05:17:26.558Z,17.80
2017-05-13T05:19:53.658Z,17.90
2017-05-13T05:22:21.592Z,17.90
2017-05-13T05:24:48.702Z,18.00
2017-05-13T05:27:15.805Z,18.20
2017-05-13T05:29:42.917Z,18.80
2017-05-13T05:32:10.064Z,18.40
2017-05-13T05:34:37.191Z,18.50
2017-05-13T05:37:04.538Z,18.50
2017-05-13T05:39:32.089Z,18.40
2017-05-13T05:41:59.494Z,18.30
2017-05-13T05:44:26.777Z,18.40
2017-05-13T05:46:54.325Z,18.40
2017-05-13T05:49:21.800Z,18.50
2017-05-13T05:51:49.318Z,18.40
2017-05-13T05:54:16.453Z,18.40
2017-05-13T05:56:43.781Z,18.50
2017-05-13T05:59:11.242Z,18.50
2017-05-13T06:01:38.594Z,18.50
2017-05-13T06:04:05.965Z,18.60
2017-05-13T06:06:33.338Z,18.50
2017-05-13T06:09:01.504Z,18.40
2017-05-13T06:11:28.902Z,18.40
2017-05-13T06:13:56.465Z,18.50
2017-05-13T06:16:24.120Z,18.60
2017-05-13T06:18:51.489Z,18.70
2017-05-13T06:21:18.929Z,18.80
2017-05-13T06:23:46.565Z,18.80
2017-05-13T06:26:13.905Z,18.90
2017-05-13T06:28:41.360Z,19.00
2017-05-13T06:31:09.452Z,19.10
2017-05-13T06:33:36.789Z,19.10
2017-05-13T06:36:04.170Z,19.20
2017-05-13T06:38:31.519Z,19.20
2017-05-13T06:40:59.595Z,19.40
2017-05-13T06:43:27.158Z,19.40
2017-05-13T06:45:55.018Z,19.30
2017-05-13T06:48:22.861Z,19.30
2017-05-13T06:50:49.965Z,19.30
2017-05-13T06:53:17.085Z,19.40
2017-05-13T06:55:44.942Z,19.30
2017-05-13T06:58:12.858Z,19.30
2017-05-13T07:00:39.972Z,19.40
2017-05-13T07:03:07.429Z,19.40
2017-05-13T07:05:34.979Z,19.40
2017-05-13T07:08:02.488Z,19.40
2017-05-13T07:10:29.938Z,19.40
2017-05-13T07:12:57.593Z,19.40
2017-05-13T07:15:25.078Z,19.30
2017-05-13T07:17:52.781Z,19.20
2017-05-13T07:20:20.185Z,19.30
2017-05-13T07:22:47.471Z,19.40
2017-05-13T07:25:14.963Z,19.40
2017-05-13T07:27:42.286Z,19.50
2017-05-13T07:30:09.713Z,19.60
2017-05-13T07:32:36.977Z,19.60
2017-05-13T07:35:04.356Z,19.60
2017-05-13T07:37:31.752Z,19.70
2017-05-13T07:39:59.141Z,19.80
2017-05-13T07:42:26.526Z,19.90
2017-05-13T07:44:54.245Z,19.90
2017-05-13T07:47:21.810Z,20.10
2017-05-13T07:49:49.629Z,20.10
2017-05-13T07:52:17.202Z,20.10
2017-05-13T07:54:44.558Z,20.20
2017-05-13T07:57:11.935Z,20.20
2017-05-13T07:59:39.242Z,20.30
2017-05-13T08:02:06.686Z,20.30
2017-05-13T08:04:35.537Z,20.30
2017-05-13T08:07:02.891Z,20.40
2017-05-13T08:09:30.277Z,20.40
2017-05-13T08:11:57.635Z,20.50
2017-05-13T08:14:25.030Z,20.60
2017-05-13T08:16:53.119Z,20.50
2017-05-13T08:19:20.549Z,20.60
2017-05-13T08:21:47.901Z,20.70
2017-05-13T08:24:15.254Z,20.90
2017-05-13T08:26:43.339Z,20.80
2017-05-13T08:29:18.405Z,21.00
2017-05-13T08:31:46.272Z,20.80
2017-05-13T08:34:14.140Z,21.00
2017-05-13T08:36:48.317Z,21.00
2017-05-13T08:39:15.448Z,21.00
2017-05-13T08:41:42.596Z,21.10
2017-05-13T08:44:09.747Z,21.10
2017-05-13T08:46:36.894Z,21.20
2017-05-13T08:49:04.042Z,21.20
2017-05-13T08:51:31.160Z,21.20
2017-05-13T08:53:58.283Z,21.20
2017-05-13T08:56:26.190Z,21.30
2017-05-13T08:58:53.328Z,21.40
2017-05-13T09:01:20.479Z,21.50
2017-05-13T09:03:47.627Z,21.50
2017-05-13T09:06:14.881Z,21.50
2017-05-13T09:08:42.044Z,21.50
2017-05-13T09:11:09.188Z,21.40
2017-05-13T09:13:36.329Z,21.30
2017-05-13T09:16:03.445Z,21.40
2017-05-13T09:18:30.635Z,21.50
2017-05-13T09:20:57.758Z,21.60
2017-05-13T09:23:24.890Z,21.60
2017-05-13T09:25:52.091Z,21.60
2017-05-13T09:28:19.240Z,21.80
2017-05-13T09:30:46.380Z,22.00
2017-05-13T09:33:13.505Z,22.00
2017-05-13T09:35:40.652Z,22.20
2017-05-13T09:38:07.852Z,22.40
2017-05-13T09:40:34.957Z,22.50
2017-05-13T09:43:02.096Z,22.60
2017-05-13T09:45:29.220Z,22.50
2017-05-13T09:47:57.133Z,22.40
2017-05-13T09:50:24.242Z,22.60
2017-05-13T09:52:52.093Z,22.60
2017-05-13T09:55:20.088Z,22.90
2017-05-13T09:57:47.855Z,23.20
2017-05-13T10:00:14.988Z,23.40
2017-05-13T10:02:49.193Z,23.90
2017-05-13T10:05:17.146Z,24.90
2017-05-13T10:07:44.254Z,25.80
2017-05-13T10:10:11.575Z,26.60
2017-05-13T10:12:38.753Z,26.90
2017-05-13T10:15:05.905Z,28.80
2017-05-13T10:17:33.101Z,30.90
2017-05-13T10:20:01.178Z,31.70
2017-05-13T10:22:29.112Z,32.40
2017-05-13T10:24:56.342Z,32.70
2017-05-13T10:27:23.478Z,34.50
2017-05-13T10:29:50.613Z,35.60
2017-05-13T10:32:17.778Z,35.70
2017-05-13T10:34:44.927Z,36.40
2017-05-13T10:37:12.058Z,36.30
2017-05-13T10:39:39.210Z,36.50
2017-05-13T10:42:06.374Z,35.40
2017-05-13T10:44:33.519Z,34.50
2017-05-13T10:47:00.688Z,34.30
2017-05-13T10:49:27.836Z,34.60
2017-05-13T10:51:54.964Z,35.30
2017-05-13T10:54:22.168Z,36.00
2017-05-13T10:56:49.562Z,36.00
2017-05-13T10:59:16.916Z,36.30
2017-05-13T11:01:44.302Z,35.90
2017-05-13T11:04:11.592Z,34.90
2017-05-13T11:06:38.990Z,35.00
2017-05-13T11:09:06.265Z,35.30
2017-05-13T11:11:33.657Z,35.40
2017-05-13T11:14:01.047Z,33.90
2017-05-13T11:16:28.423Z,34.10
2017-05-13T11:18:56.506Z,34.40
2017-05-13T11:21:24.574Z,33.00
2017-05-13T11:23:51.909Z,32.70
2017-05-13T11:26:19.257Z,32.60
2017-05-13T11:28:46.685Z,32.10
2017-05-13T11:31:14.325Z,31.40
2017-05-13T11:33:41.665Z,31.90
2017-05-13T11:36:09.066Z,31.60
2017-05-13T11:38:36.448Z,30.50
2017-05-13T11:41:04.541Z,29.50
2017-05-13T11:43:32.042Z,29.00
2017-05-13T11:45:59.410Z,28.90
2017-05-13T11:48:26.965Z,28.80
2017-05-13T11:50:54.577Z,28.30
2017-05-13T11:53:21.899Z,27.80
2017-05-13T11:55:49.587Z,27.60
2017-05-13T11:58:17.177Z,27.50
2017-05-13T12:00:44.613Z,28.00
2017-05-13T12:03:12.291Z,28.30
2017-05-13T12:05:39.742Z,28.60
2017-05-13T12:08:07.170Z,28.30
2017-05-13T12:10:34.867Z,28.00
2017-05-13T12:13:02.341Z,28.40
2017-05-13T12:15:29.925Z,28.80
2017-05-13T12:17:57.522Z,28.90
2017-05-13T12:20:25.206Z,28.40
2017-05-13T12:22:52.741Z,27.90
2017-05-13T12:25:20.217Z,27.50
2017-05-13T12:27:47.787Z,28.20
2017-05-13T12:30:15.058Z,29.00
2017-05-13T12:32:42.466Z,29.10
2017-05-13T12:35:10.012Z,28.80
2017-05-13T12:37:37.450Z,28.50
2017-05-13T12:40:04.838Z,28.40
2017-05-13T12:42:32.361Z,27.90
2017-05-13T12:44:59.860Z,27.20
2017-05-13T12:47:27.427Z,27.10
2017-05-13T12:49:54.814Z,26.60
2017-05-13T12:52:23.057Z,26.40
2017-05-13T12:54:50.581Z,26.20
2017-05-13T12:57:18.162Z,26.10
2017-05-13T12:59:45.689Z,25.70
2017-05-13T13:02:13.260Z,25.80
2017-05-13T13:04:40.917Z,26.30
2017-05-13T13:07:08.373Z,27.20
2017-05-13T13:09:35.768Z,27.30
2017-05-13T13:12:03.210Z,27.20
2017-05-13T13:14:30.709Z,27.50
2017-05-13T13:16:58.322Z,27.80
2017-05-13T13:19:25.727Z,28.00
2017-05-13T13:21:53.319Z,28.00
2017-05-13T13:24:20.982Z,27.80
2017-05-13T13:26:48.282Z,27.50
2017-05-13T13:29:15.825Z,27.50
2017-05-13T13:31:43.657Z,27.30
2017-05-13T13:34:13.730Z,27.00
2017-05-13T13:36:41.205Z,26.80
2017-05-13T13:39:08.519Z,26.60
2017-05-13T13:41:36.645Z,26.50
2017-05-13T13:44:04.238Z,26.60
2017-05-13T13:46:31.697Z,26.40
2017-05-13T13:48:59.225Z,26.30
2017-05-13T13:51:26.866Z,26.30
2017-05-13T13:53:54.445Z,26.20
2017-05-13T13:56:22.644Z,25.90
2017-05-13T13:58:50.074Z,25.80
2017-05-13T14:01:17.622Z,25.90
2017-05-13T14:03:45.073Z,25.80
2017-05-13T14:06:12.618Z,25.60
2017-05-13T14:08:40.825Z,25.60
2017-05-13T14:11:08.463Z,25.70
2017-05-13T14:13:36.014Z,25.70
2017-05-13T14:16:03.709Z,25.60
2017-05-13T14:18:31.339Z,25.60
2017-05-13T14:20:58.926Z,25.50
2017-05-13T14:23:26.468Z,25.30
2017-05-13T14:25:54.041Z,25.00
2017-05-13T14:28:21.492Z,24.90
2017-05-13T14:30:48.781Z,24.90
2017-05-13T14:33:16.100Z,25.10
2017-05-13T14:35:43.659Z,25.10
2017-05-13T14:38:11.185Z,25.20
2017-05-13T14:40:38.776Z,25.20
2017-05-13T14:43:06.917Z,25.10
2017-05-13T14:45:34.490Z,25.10
2017-05-13T14:48:02.098Z,25.10
2017-05-13T14:50:30.203Z,25.20
2017-05-13T14:52:57.817Z,25.30
2017-05-13T14:55:25.334Z,25.20
2017-05-13T14:57:52.901Z,25.30
2017-05-13T15:00:20.482Z,25.30
2017-05-13T15:02:48.027Z,25.50
2017-05-13T15:05:15.454Z,25.50
2017-05-13T15:07:42.991Z,24.90
2017-05-13T15:10:10.319Z,25.10
2017-05-13T15:12:37.730Z,24.90
2017-05-13T15:15:05.103Z,24.90
2017-05-13T15:17:32.738Z,24.90
2017-05-13T15:20:00.093Z,24.90
2017-05-13T15:22:27.454Z,24.90
2017-05-13T15:24:54.765Z,25.10
2017-05-13T15:27:22.206Z,25.10
2017-05-13T15:29:49.601Z,24.70
2017-05-13T15:32:17.081Z,24.50
2017-05-13T15:34:44.521Z,24.40
2017-05-13T15:37:12.064Z,24.40
2017-05-13T15:39:39.598Z,24.30
2017-05-13T15:42:06.977Z,24.30
2017-05-13T15:44:34.534Z,24.30
2017-05-13T15:47:02.133Z,24.20
2017-05-13T15:49:29.514Z,24.20
2017-05-13T15:51:56.894Z,24.20
2017-05-13T15:54:24.283Z,24.30
2017-05-13T15:56:51.722Z,24.40
2017-05-13T15:59:19.214Z,24.50
2017-05-13T16:01:46.622Z,24.60
2017-05-13T16:04:14.102Z,24.80
2017-05-13T16:06:41.641Z,24.70
2017-05-13T16:09:09.225Z,24.80
2017-05-13T16:11:36.737Z,24.90
2017-05-13T16:14:04.138Z,25.00
2017-05-13T16:16:31.667Z,24.90
2017-05-13T16:18:59.253Z,24.90
2017-05-13T16:21:26.514Z,25.00
2017-05-13T16:23:53.827Z,25.00
2017-05-13T16:26:21.395Z,25.10
2017-05-13T16:28:48.894Z,25.10
2017-05-13T16:31:16.259Z,25.00
2017-05-13T16:33:43.640Z,24.90
2017-05-13T16:36:10.997Z,24.90
2017-05-13T16:38:39.078Z,24.80
2017-05-13T16:41:06.472Z,24.60
2017-05-13T16:43:33.948Z,24.60
2017-05-13T16:46:01.309Z,24.60
2017-05-13T16:48:29.426Z,24.60
2017-05-13T16:50:56.791Z,24.40
2017-05-13T16:53:24.138Z,24.20
2017-05-13T16:55:51.469Z,24.10
2017-05-13T16:58:18.810Z,24.10
2017-05-13T17:00:46.162Z,24.00
2017-05-13T17:03:13.541Z,23.90
2017-05-13T17:05:40.956Z,23.80
2017-05-13T17:08:08.374Z,23.70
2017-05-13T17:10:35.730Z,23.70
2017-05-13T17:13:03.100Z,23.80
2017-05-13T17:15:30.437Z,23.70
2017-05-13T17:17:57.789Z,23.60
2017-05-13T17:20:25.053Z,23.60
2017-05-13T17:22:52.409Z,23.50
2017-05-13T17:25:19.741Z,23.50
2017-05-13T17:27:47.117Z,23.40
2017-05-13T17:30:14.482Z,23.50
2017-05-13T17:32:41.821Z,23.40
2017-05-13T17:35:09.187Z,23.50
2017-05-13T17:37:36.538Z,23.30
2017-05-13T17:40:03.944Z,23.30
2017-05-13T17:42:31.326Z,23.20
2017-05-13T17:44:58.665Z,23.20
2017-05-13T17:47:25.991Z,23.10
2017-05-13T17:49:53.431Z,23.20
2017-05-13T17:52:20.834Z,23.10
2017-05-13T17:54:48.246Z,23.00
2017-05-13T17:57:15.617Z,22.90
2017-05-13T17:59:43.006Z,22.90
2017-05-13T18:02:11.151Z,22.80
2017-05-13T18:04:38.554Z,22.80
2017-05-13T18:07:05.998Z,22.70
2017-05-13T18:09:33.421Z,22.70
2017-05-13T18:12:00.786Z,22.60
2017-05-13T18:14:28.170Z,22.70
2017-05-13T18:16:55.523Z,22.70
2017-05-13T18:19:22.917Z,22.60
2017-05-13T18:21:50.303Z,22.50
2017-05-13T18:24:17.693Z,22.50
2017-05-13T18:26:45.142Z,22.50
2017-05-13T18:29:12.530Z,22.40
2017-05-13T18:31:39.910Z,22.40
2017-05-13T18:34:07.338Z,22.30
2017-05-13T18:36:34.965Z,22.00
2017-05-13T18:39:02.590Z,21.80
2017-05-13T18:41:30.080Z,21.40
2017-05-13T18:43:57.407Z,21.10
2017-05-13T18:46:25.056Z,20.90
2017-05-13T18:48:52.517Z,20.80
2017-05-13T18:51:20.077Z,20.70
2017-05-13T18:53:47.704Z,20.60
2017-05-13T18:56:15.299Z,20.50
2017-05-13T18:58:42.962Z,20.50
2017-05-13T19:01:10.654Z,20.50
2017-05-13T19:03:38.265Z,20.40
2017-05-13T19:06:05.706Z,20.40
2017-05-13T19:08:33.045Z,20.50
2017-05-13T19:11:00.611Z,20.50
2017-05-13T19:13:28.095Z,20.50
2017-05-13T19:15:55.637Z,20.50
2017-05-13T19:18:24.313Z,20.60
2017-05-13T19:20:59.129Z,20.70
2017-05-13T19:23:26.710Z,20.70
2017-05-13T19:25:55.026Z,20.70
2017-05-13T19:28:22.589Z,20.70
2017-05-13T19:30:50.767Z,20.80
2017-05-13T19:33:18.350Z,20.80
2017-05-13T19:35:45.932Z,20.80
2017-05-13T19:38:13.405Z,20.80
2017-05-13T19:40:40.769Z,20.80
2017-05-13T19:43:08.357Z,20.80
2017-05-13T19:45:36.060Z,20.60
2017-05-13T19:48:03.710Z,20.50
2017-05-13T19:50:31.288Z,20.50
2017-05-13T19:52:58.729Z,20.40
2017-05-13T19:55:27.006Z,20.20
2017-05-13T19:57:55.157Z,20.30
2017-05-13T20:00:22.547Z,20.20
2017-05-13T20:02:49.953Z,20.20
2017-05-13T20:05:17.569Z,19.90
2017-05-13T20:07:45.103Z,19.70
2017-05-13T20:10:12.589Z,19.50
2017-05-13T20:12:40.208Z,19.40
2017-05-13T20:15:07.806Z,19.40
2017-05-13T20:17:35.330Z,19.30
2017-05-13T20:20:02.711Z,19.20
2017-05-13T20:22:30.349Z,19.20
2017-05-13T20:24:57.866Z,19.20
2017-05-13T20:27:25.446Z,19.10
2017-05-13T20:29:52.950Z,19.10
2017-05-13T20:32:20.557Z,19.10
2017-05-13T20:34:47.914Z,19.00
2017-05-13T20:37:16.410Z,18.90
2017-05-13T20:39:43.012Z,18.80
2017-05-13T20:42:10.431Z,18.80
2017-05-13T20:44:37.716Z,18.70
2017-05-13T20:47:05.243Z,18.80
2017-05-13T20:49:32.867Z,18.80
2017-05-13T20:52:00.350Z,18.90
2017-05-13T20:54:28.563Z,18.90
2017-05-13T20:56:56.435Z,18.70
2017-05-13T20:59:23.949Z,18.80
2017-05-13T21:01:51.301Z,18.80
2017-05-13T21:04:18.789Z,18.90
2017-05-13T21:06:47.711Z,18.80
2017-05-13T21:09:15.094Z,18.80
2017-05-13T21:11:43.541Z,18.70
2017-05-13T21:14:10.902Z,18.60
2017-05-13T21:16:39.002Z,18.60
2017-05-13T21:19:07.689Z,18.40
2017-05-13T21:21:36.735Z,18.30
2017-05-13T21:24:05.131Z,18.20
2017-05-13T21:26:34.510Z,18.10
2017-05-13T21:29:05.290Z,18.00
2017-05-13T21:31:33.946Z,17.90
2017-05-13T21:34:02.179Z,17.90
2017-05-13T21:36:30.853Z,17.80
2017-05-13T21:38:59.327Z,17.70
2017-05-13T21:41:26.672Z,17.70
2017-05-13T21:43:57.340Z,17.80
2017-05-13T21:46:25.068Z,17.80
2017-05-13T21:48:52.708Z,17.80
2017-05-13T21:51:20.262Z,17.80
2017-05-13T21:53:51.138Z,17.90
2017-05-13T21:56:18.830Z,17.90
2017-05-13T21:58:47.060Z,18.00
2017-05-13T22:01:14.966Z,18.00
2017-05-13T22:03:43.436Z,18.00
2017-05-13T22:06:10.844Z,18.10
2017-05-13T22:08:38.948Z,18.10
2017-05-13T22:11:07.567Z,18.10
2017-05-13T22:13:37.654Z,18.10
2017-05-13T22:16:05.059Z,18.20
2017-05-13T22:18:32.185Z,18.20
2017-05-13T22:21:04.029Z,18.30
2017-05-13T22:23:34.877Z,18.40
2017-05-13T22:26:02.757Z,18.40
2017-05-13T22:28:30.186Z,18.40
2017-05-13T22:30:58.584Z,18.50
2017-05-13T22:33:30.391Z,18.50
2017-05-13T22:35:58.263Z,18.60
2017-05-13T22:38:25.839Z,18.60
2017-05-13T22:40:53.727Z,18.00
2017-05-13T22:43:21.676Z,18.50
2017-05-13T22:45:48.958Z,18.60
2017-05-13T22:48:18.037Z,18.60
2017-05-13T22:50:46.850Z,18.60
2017-05-13T22:53:14.506Z,18.50
2017-05-13T22:55:42.477Z,18.60
2017-05-13T22:58:10.535Z,18.50
2017-05-13T23:00:38.485Z,18.50
2017-05-13T23:03:05.633Z,18.50
2017-05-13T23:05:32.857Z,18.50
2017-05-13T23:08:00.038Z,18.50
2017-05-13T23:10:27.891Z,18.50
2017-05-13T23:12:56.102Z,18.40
2017-05-13T23:15:24.225Z,18.40
2017-05-13T23:17:51.822Z,18.40
2017-05-13T23:20:21.195Z,18.40
2017-05-13T23:22:50.673Z,18.40
2017-05-13T23:25:19.694Z,18.40
2017-05-13T23:27:47.505Z,18.40
2017-05-13T23:30:15.925Z,18.40
2017-05-13T23:32:44.763Z,18.30
2017-05-13T23:35:13.246Z,18.30
2017-05-13T23:37:40.865Z,18.40
2017-05-13T23:40:09.506Z,18.40
2017-05-13T23:42:36.783Z,18.40
2017-05-13T23:45:18.863Z,18.40
2017-05-13T23:47:46.074Z,18.30
2017-05-13T23:50:13.219Z,18.40
2017-05-13T23:52:41.069Z,18.40
2017-05-13T23:55:09.454Z,18.40
2017-05-13T23:57:36.950Z,18.40
